Time;durP1;ratioP1;P1;durP2;ratioP2;P2;SDS_P1;SDS_P2;PMS_P1;PMS_P2;Temp;Humidity;BMP_temperature;BMP_pressure;BME280_temperature;BME280_humidity;BME280_pressure;Samples;Min_cycle;Max_cycle;Signal;HPM_P1;HPM_P2
2022/11/01 00:04:15;;;;;;;3.67;1.67;;;14.70;99.90;;;;;;20753883;28;20088;-39
2022/11/01 00:14:17;;;;;;;10.30;2.65;;;14.80;99.90;;;;;;20780062;28;20632;-40
2022/11/01 00:24:18;;;;;;;3.88;2.22;;;15.10;99.90;;;;;;20752035;28;20164;-40
2022/11/01 00:34:19;;;;;;;6.88;1.52;;;15.20;99.90;;;;;;20749329;28;20405;-39
2022/11/01 00:44:20;;;;;;;5.65;1.52;;;15.10;99.90;;;;;;20754262;28;20543;-39
2022/11/01 00:54:21;;;;;;;4.45;1.30;;;15.30;99.90;;;;;;20751569;28;20058;-39
2022/11/01 01:04:22;;;;;;;2.97;1.42;;;15.40;99.90;;;;;;20765956;28;20076;-39
2022/11/01 01:14:24;;;;;;;3.42;1.52;;;15.70;99.90;;;;;;20765313;28;20057;-39
2022/11/01 01:24:25;;;;;;;2.42;1.13;;;15.80;99.90;;;;;;20757924;28;20130;-40
2022/11/01 01:34:26;;;;;;;10.18;2.17;;;15.80;99.90;;;;;;20789890;28;20132;-40
2022/11/01 01:45:24;;;;;;;5.05;1.75;;;15.80;99.90;;;;;;20785028;28;20045;-40
2022/11/01 01:55:40;;;;;;;4.50;1.70;;;15.70;99.90;;;;;;20774556;28;21350;-39
2022/11/01 02:05:54;;;;;;;4.15;1.38;;;15.90;99.90;;;;;;20778246;28;20893;-39
2022/11/01 02:16:14;;;;;;;5.20;1.30;;;16.00;99.90;;;;;;20781016;28;20500;-40
2022/11/01 02:26:35;;;;;;;3.65;1.60;;;16.00;99.90;;;;;;20785902;28;20129;-40
2022/11/01 02:36:47;;;;;;;5.53;1.05;;;16.20;99.90;;;;;;20774326;28;20783;-39
2022/11/01 02:47:00;;;;;;;3.20;1.75;;;16.40;99.90;;;;;;20729712;28;20745;-40
2022/11/01 02:57:16;;;;;;;2.60;1.25;;;16.60;99.90;;;;;;20740752;28;20133;-40
2022/11/01 03:07:17;;;;;;;4.28;0.80;;;16.70;99.90;;;;;;20774062;28;20138;-40
2022/11/01 03:17:48;;;;;;;3.63;1.15;;;16.70;99.90;;;;;;20753921;28;20148;-40
2022/11/01 03:27:49;;;;;;;2.70;0.85;;;16.60;99.90;;;;;;20755640;28;20242;-40
2022/11/01 03:37:55;;;;;;;0.43;0.20;;;16.50;99.90;;;;;;20771812;28;20175;-40
2022/11/01 03:47:56;;;;;;;3.53;0.20;;;16.20;99.90;;;;;;20750918;28;20597;-40
2022/11/01 03:57:59;;;;;;;1.00;0.22;;;15.80;99.90;;;;;;20760244;28;20082;-40
2022/11/01 04:08:00;;;;;;;2.05;0.10;;;15.60;99.90;;;;;;20746186;28;20139;-40
2022/11/01 04:28:29;;;;;;;0.57;0.10;;;15.20;99.90;;;;;;20767137;28;20726;-40
2022/11/01 04:38:30;;;;;;;0.77;0.20;;;15.10;99.90;;;;;;20763848;28;20458;-40
2022/11/01 04:48:31;;;;;;;9.88;0.30;;;14.90;99.90;;;;;;20771539;28;20048;-40
2022/11/01 04:58:33;;;;;;;0.70;0.20;;;14.80;99.90;;;;;;20757434;28;20445;-39
2022/11/01 05:08:34;;;;;;;5.25;0.40;;;14.70;99.90;;;;;;20752351;28;20246;-39
2022/11/01 05:18:35;;;;;;;0.90;0.30;;;14.50;99.90;;;;;;20748433;28;20053;-39
2022/11/01 05:28:36;;;;;;;2.85;0.98;;;14.30;99.90;;;;;;20752069;28;20037;-40
2022/11/01 05:38:37;;;;;;;2.95;0.38;;;14.10;99.90;;;;;;20755533;28;20144;-39
2022/11/01 05:48:40;;;;;;;3.58;1.13;;;14.00;99.90;;;;;;20756000;28;20195;-39
2022/11/01 05:58:41;;;;;;;2.88;1.17;;;14.00;99.90;;;;;;20760083;28;20275;-39
2022/11/01 06:08:42;;;;;;;1.52;0.68;;;13.90;99.90;;;;;;20738094;28;20204;-39
2022/11/01 06:18:43;;;;;;;1.83;0.50;;;13.90;99.90;;;;;;20731940;28;20083;-39
2022/11/01 06:28:45;;;;;;;1.63;0.80;;;13.90;99.90;;;;;;20740044;28;20045;-39
2022/11/01 06:38:45;;;;;;;0.80;0.30;;;13.90;99.90;;;;;;20721169;28;20196;-40
2022/11/01 06:48:47;;;;;;;4.05;1.42;;;13.80;99.90;;;;;;20717701;28;20529;-39
2022/11/01 06:58:49;;;;;;;3.13;1.35;;;13.60;99.90;;;;;;20741656;28;20152;-40
2022/11/01 07:08:50;;;;;;;2.08;0.73;;;13.50;99.90;;;;;;20750430;28;20053;-39
2022/11/01 07:18:51;;;;;;;2.38;1.40;;;13.40;99.90;;;;;;20750361;28;20252;-39
2022/11/01 07:28:52;;;;;;;2.20;0.70;;;13.30;99.90;;;;;;20765602;28;20041;-39
2022/11/01 07:38:53;;;;;;;2.15;0.43;;;13.40;99.90;;;;;;20757774;28;20921;-39
2022/11/01 07:48:54;;;;;;;2.03;1.08;;;13.40;99.90;;;;;;20743739;28;20045;-39
2022/11/01 07:58:55;;;;;;;4.70;0.90;;;13.50;99.90;;;;;;20740338;28;20061;-39
2022/11/01 08:08:56;;;;;;;4.38;1.10;;;13.60;99.90;;;;;;20739467;28;20049;-39
2022/11/01 08:18:57;;;;;;;3.78;1.52;;;13.60;99.90;;;;;;20712945;28;20053;-39
2022/11/01 08:28:59;;;;;;;3.80;1.23;;;13.70;99.90;;;;;;20738239;28;20409;-39
2022/11/01 08:39:00;;;;;;;2.38;0.93;;;13.80;99.90;;;;;;20724101;28;20177;-39
2022/11/01 08:49:01;;;;;;;6.55;1.35;;;14.00;99.90;;;;;;20792006;28;21866;-39
2022/11/01 08:59:02;;;;;;;3.88;1.15;;;14.00;99.90;;;;;;20774572;28;20464;-39
2022/11/01 09:09:04;;;;;;;3.03;1.45;;;14.10;99.90;;;;;;20757496;28;20050;-39
2022/11/01 09:19:05;;;;;;;2.30;1.08;;;14.00;99.90;;;;;;20758221;28;20540;-40
2022/11/01 09:29:06;;;;;;;2.92;0.68;;;14.00;99.90;;;;;;20793746;28;20099;-40
2022/11/01 09:39:08;;;;;;;11.13;0.88;;;14.20;99.90;;;;;;20722000;28;20186;-39
2022/11/01 09:49:11;;;;;;;12.07;2.35;;;14.40;99.90;;;;;;20738213;28;20177;-39
2022/11/01 09:59:28;;;;;;;3.20;0.90;;;14.50;99.90;;;;;;20730762;28;21067;-39
2022/11/01 10:10:26;;;;;;;6.30;1.77;;;14.70;99.90;;;;;;20731758;28;21824;-39
2022/11/01 10:20:32;;;;;;;13.45;1.08;;;14.80;99.90;;;;;;20480617;28;20832;-39
2022/11/01 10:30:39;;;;;;;1.55;0.47;;;15.10;99.90;;;;;;20755832;28;21154;-39
2022/11/01 10:40:45;;;;;;;3.35;1.33;;;15.30;99.90;;;;;;20750444;28;21881;-39
2022/11/01 10:50:47;;;;;;;4.43;0.63;;;15.70;99.90;;;;;;20746501;28;20504;-39
2022/11/01 11:00:49;;;;;;;7.20;1.48;;;16.20;99.90;;;;;;20743645;28;21395;-40
2022/11/01 11:10:50;;;;;;;3.70;0.88;;;16.60;99.90;;;;;;20759014;28;20103;-40
2022/11/01 11:20:58;;;;;;;1.80;0.70;;;16.90;99.90;;;;;;20752615;28;20188;-39
2022/11/01 11:31:19;;;;;;;1.35;0.60;;;17.00;99.90;;;;;;20755835;28;20053;-39
2022/11/01 11:41:35;;;;;;;5.78;1.20;;;17.20;99.90;;;;;;20747566;28;20049;-39
2022/11/01 11:51:37;;;;;;;1.25;0.32;;;17.70;99.90;;;;;;20759013;28;20867;-39
2022/11/01 12:01:38;;;;;;;3.33;0.60;;;17.80;99.90;;;;;;20750665;28;20077;-39
2022/11/01 12:11:44;;;;;;;4.03;0.50;;;17.90;99.90;;;;;;20759936;28;20125;-40
2022/11/01 12:21:46;;;;;;;1.25;0.35;;;18.10;99.90;;;;;;20748633;28;20085;-40
2022/11/01 12:31:48;;;;;;;2.90;0.40;;;18.40;99.90;;;;;;20750699;28;20037;-40
2022/11/01 12:41:57;;;;;;;1.30;0.32;;;18.30;99.90;;;;;;20762325;28;20061;-40
2022/11/01 12:52:05;;;;;;;1.27;0.20;;;18.60;99.90;;;;;;20775058;28;20046;-40
2022/11/01 13:02:30;;;;;;;1.75;0.30;;;18.60;99.90;;;;;;20704249;28;20084;-40
2022/11/01 13:12:53;;;;;;;0.77;0.22;;;18.80;99.90;;;;;;20751009;28;20751;-40
2022/11/01 13:23:35;;;;;;;0.95;0.40;;;18.60;99.90;;;;;;20741423;28;20242;-39
2022/11/01 13:33:50;;;;;;;2.42;1.25;;;18.00;99.90;;;;;;20640752;28;20845;-39
2022/11/01 13:44:01;;;;;;;3.13;0.30;;;17.50;99.90;;;;;;20723254;28;20200;-39
2022/11/01 13:54:06;;;;;;;1.73;0.30;;;17.30;99.90;;;;;;20701540;28;20071;-40
2022/11/01 14:04:16;;;;;;;1.48;0.50;;;17.00;99.90;;;;;;20675293;28;20322;-40
2022/11/01 14:14:45;;;;;;;2.05;0.60;;;17.10;99.90;;;;;;20694733;28;20571;-40
2022/11/01 14:25:09;;;;;;;0.82;0.30;;;17.70;99.90;;;;;;20719172;28;21907;-40
2022/11/01 14:35:10;;;;;;;3.00;0.80;;;18.00;99.90;;;;;;20694562;28;20710;-40
2022/11/01 14:45:34;;;;;;;2.22;0.47;;;17.30;99.90;;;;;;20742567;28;20831;-40
2022/11/01 14:55:36;;;;;;;1.70;0.50;;;16.60;99.90;;;;;;20711865;28;20358;-40
2022/11/01 15:05:47;;;;;;;1.77;0.40;;;16.70;99.90;;;;;;20731923;28;20049;-40
2022/11/01 15:16:14;;;;;;;1.35;0.50;;;16.50;99.90;;;;;;20713851;28;20120;-40
2022/11/01 15:26:17;;;;;;;0.45;0.10;;;16.30;99.90;;;;;;20756784;28;20103;-40
2022/11/01 15:36:22;;;;;;;3.70;0.82;;;16.20;99.90;;;;;;20717377;28;20536;-40
2022/11/01 15:46:44;;;;;;;3.38;1.08;;;16.00;99.90;;;;;;20752036;28;20045;-39
2022/11/01 15:56:53;;;;;;;2.08;1.00;;;15.80;99.90;;;;;;20742528;28;21875;-39
2022/11/01 16:06:57;;;;;;;3.50;0.50;;;15.70;99.90;;;;;;20746412;28;20560;-39
2022/11/01 16:17:05;;;;;;;1.50;0.60;;;15.60;99.90;;;;;;20773234;28;20106;-40
2022/11/01 16:27:24;;;;;;;1.23;0.50;;;15.50;99.90;;;;;;20710408;28;20591;-39
2022/11/01 16:37:28;;;;;;;3.03;0.40;;;15.40;99.90;;;;;;20719110;28;20238;-40
2022/11/01 16:47:29;;;;;;;3.35;0.50;;;15.40;99.90;;;;;;20765285;28;20720;-40
2022/11/01 16:57:30;;;;;;;2.65;0.52;;;15.40;99.90;;;;;;20747883;28;20053;-39
2022/11/01 17:07:32;;;;;;;4.43;0.60;;;15.40;99.90;;;;;;20758562;28;20046;-39
2022/11/01 17:17:33;;;;;;;6.13;1.98;;;15.50;99.90;;;;;;20747978;28;20041;-40
2022/11/01 17:27:34;;;;;;;1.52;0.70;;;15.50;99.90;;;;;;20741783;28;20093;-40
2022/11/01 17:37:35;;;;;;;6.40;1.55;;;15.50;99.90;;;;;;20725419;28;20905;-39
2022/11/01 17:47:36;;;;;;;2.17;1.05;;;15.50;99.90;;;;;;20726560;28;20044;-39
2022/11/01 17:57:42;;;;;;;3.03;0.63;;;15.30;99.90;;;;;;20745142;28;20048;-39
2022/11/01 18:07:46;;;;;;;1.50;0.43;;;15.30;99.90;;;;;;20735315;28;20353;-39
2022/11/01 18:18:11;;;;;;;2.55;1.00;;;15.40;99.90;;;;;;20722776;28;20160;-39
2022/11/01 18:28:16;;;;;;;2.80;1.20;;;15.20;99.90;;;;;;20731338;28;20048;-39
2022/11/01 18:38:19;;;;;;;2.88;0.70;;;15.20;99.90;;;;;;20745949;28;20116;-39
2022/11/01 18:48:30;;;;;;;5.80;1.60;;;15.20;99.90;;;;;;20718360;28;20347;-40
2022/11/01 18:58:38;;;;;;;4.47;0.70;;;15.00;99.90;;;;;;20731173;28;20998;-39
2022/11/01 19:08:39;;;;;;;2.38;1.08;;;14.90;99.90;;;;;;20761872;28;21433;-39
2022/11/01 19:18:40;;;;;;;3.95;0.93;;;14.80;99.90;;;;;;20746771;28;20053;-39
2022/11/01 19:28:41;;;;;;;2.58;0.75;;;14.70;99.90;;;;;;20741869;28;20136;-39
2022/11/01 19:38:44;;;;;;;4.60;1.73;;;14.90;99.90;;;;;;20747116;28;20581;-40
2022/11/01 19:48:45;;;;;;;8.05;0.90;;;15.00;99.90;;;;;;20752347;28;20381;-39
2022/11/01 19:58:54;;;;;;;3.55;0.50;;;14.90;99.90;;;;;;20743904;28;20045;-39
2022/11/01 20:08:58;;;;;;;2.42;0.73;;;14.70;99.90;;;;;;20752246;28;20065;-40
2022/11/01 20:18:59;;;;;;;1.13;0.43;;;14.80;99.90;;;;;;20769863;28;20214;-40
2022/11/01 20:29:00;;;;;;;2.45;0.63;;;14.70;99.90;;;;;;20769832;28;20079;-40
2022/11/01 20:39:02;;;;;;;1.45;0.32;;;14.80;99.90;;;;;;20670273;28;20199;-39
2022/11/01 20:49:03;;;;;;;1.75;0.80;;;14.70;99.90;;;;;;20658629;28;20065;-39
2022/11/01 20:59:04;;;;;;;3.08;1.35;;;14.80;99.90;;;;;;20667190;28;20745;-39
2022/11/01 21:09:31;;;;;;;2.92;0.60;;;14.50;99.90;;;;;;20652055;28;20617;-39
2022/11/01 21:19:32;;;;;;;2.35;0.90;;;14.10;99.90;;;;;;20652682;28;20627;-39
2022/11/01 21:29:33;;;;;;;0.98;0.57;;;14.00;99.90;;;;;;20678340;28;20053;-39
2022/11/01 21:39:34;;;;;;;2.28;0.30;;;13.80;99.90;;;;;;20708958;28;20542;-39
2022/11/01 21:49:35;;;;;;;1.10;0.20;;;13.80;99.90;;;;;;20743819;28;20042;-39
2022/11/01 21:59:37;;;;;;;7.88;2.65;;;13.50;99.90;;;;;;20729936;28;20149;-39
2022/11/01 22:09:38;;;;;;;1.58;0.55;;;13.10;99.90;;;;;;20733307;28;20049;-39
2022/11/01 22:19:39;;;;;;;1.67;0.40;;;12.70;99.90;;;;;;20730117;28;20050;-39
2022/11/01 22:29:40;;;;;;;3.60;1.48;;;12.00;99.90;;;;;;20760105;28;20049;-39
2022/11/01 22:39:41;;;;;;;0.70;0.25;;;11.80;99.90;;;;;;20735647;28;20172;-39
2022/11/01 22:49:50;;;;;;;0.57;0.20;;;11.80;99.90;;;;;;20752872;28;20524;-39
2022/11/01 23:00:00;;;;;;;1.35;0.30;;;11.80;99.90;;;;;;20758925;28;20291;-39
2022/11/01 23:10:18;;;;;;;1.33;0.20;;;12.00;99.90;;;;;;20759703;28;20050;-39
2022/11/01 23:20:19;;;;;;;1.15;0.40;;;12.00;99.90;;;;;;20745417;28;20140;-39
2022/11/01 23:30:21;;;;;;;5.43;1.38;;;11.90;99.90;;;;;;20742511;28;20076;-39
2022/11/01 23:40:27;;;;;;;1.98;1.08;;;11.90;99.90;;;;;;20749205;28;20101;-39
2022/11/01 23:50:32;;;;;;;2.05;0.85;;;11.90;99.90;;;;;;20758416;28;20628;-39
